11NC weather

Sprint/Midatlantic Telecom Heliport
Youngsville, North Carolina, United States

Public forecast

Using degrees Fahrenheit for public forecast. Weather courtesy of forecast.io.

Closest aviation weather report (METAR) to Sprint/Midatlantic Telecom Heliport

Closest report is Triangle North Executive Airport, 9.2 nm (17.0 km) E. Retrieved 2020/02/20 04:35 UTC (0 seconds ago):

KLHZ 200435Z AUTO 00000KT 10SM CLR 01/01 A3043 RMK AO2

Closest aviation forecast (TAF) to Sprint/Midatlantic Telecom Heliport

Closest forecast is Raleigh Durham International Airport, 15.7 nm (29.0 km) WSW. Retrieved 2020-02-20 00:45 UTC (4 hours ago):

TAF KRDU 192343Z 2000/2024 08005KT P6SM BKN080 OVC250 FM201000 07007KT P6SM OVC080 FM201500 06006KT P6SM OVC070 TEMPO 2015/2017 P6SM -RA OVC050 FM201700 06006KT 4SM -RASN BR OVC015 FM201900 06006KT 4SM -SN OVC015 FM202100 05007KT 1 1/2SM -SN BR OVC004 FM202300 02008KT 1/2SM SN FG VV002